Time;durP1;ratioP1;P1;durP2;ratioP2;P2;SDS_P1;SDS_P2;PMS_P1;PMS_P2;Temp;Humidity;BMP_temperature;BMP_pressure;BME280_temperature;BME280_humidity;BME280_pressure;Samples;Min_cycle;Max_cycle;Signal;HPM_P1;HPM_P2
2021/03/11 00:01:17;;;;;;;41.68;19.12;;;;;;;-1.42;49.48;100517.41;147711;1144;104528;-67
2021/03/11 00:04:20;;;;;;;37.27;16.17;;;;;;;-1.46;49.29;100513.23;147717;1144;104941;-69
2021/03/11 00:07:23;;;;;;;36.17;17.52;;;;;;;-1.41;50.40;100510.40;147661;1144;104470;-72
2021/03/11 00:10:27;;;;;;;43.33;19.57;;;;;;;-1.34;48.88;100503.12;147704;1143;104540;-74
2021/03/11 00:13:30;;;;;;;45.95;19.32;;;;;;;-1.37;49.33;100501.48;147662;1144;104602;-71
2021/03/11 00:16:33;;;;;;;42.37;18.60;;;;;;;-1.37;50.06;100504.09;147697;1144;104544;-72
2021/03/11 00:19:37;;;;;;;43.28;19.30;;;;;;;-1.37;49.18;100509.33;147711;1144;104496;-71
2021/03/11 00:22:41;;;;;;;42.13;21.00;;;;;;;-1.38;49.26;100510.27;147665;1144;104457;-68
2021/03/11 00:25:44;;;;;;;39.27;16.65;;;;;;;-1.35;50.16;100504.87;147729;1144;104585;-69
2021/03/11 00:28:47;;;;;;;35.15;16.55;;;;;;;-1.32;49.03;100504.75;147692;1145;104575;-70
2021/03/11 00:31:50;;;;;;;39.27;18.87;;;;;;;-1.34;49.65;100496.12;147600;1145;104553;-67
2021/03/11 00:34:54;;;;;;;38.63;17.85;;;;;;;-1.35;49.77;100506.66;147636;1143;104489;-71
2021/03/11 00:37:57;;;;;;;38.50;16.95;;;;;;;-1.32;49.77;100504.75;147631;1143;104502;-70
2021/03/11 00:41:00;;;;;;;42.45;18.77;;;;;;;-1.31;49.75;100501.22;147812;1144;104550;-69
2021/03/11 00:44:04;;;;;;;38.65;18.75;;;;;;;-1.32;50.39;100490.81;147670;1145;104637;-71
2021/03/11 00:47:08;;;;;;;36.33;16.73;;;;;;;-1.32;49.32;100489.04;147714;1144;104928;-71
2021/03/11 00:50:16;;;;;;;35.58;16.95;;;;;;;-1.32;50.26;100489.04;147780;1144;104551;-70
2021/03/11 00:53:19;;;;;;;39.63;19.95;;;;;;;-1.33;49.18;100491.72;147650;1143;104976;-71
2021/03/11 00:56:23;;;;;;;34.70;16.30;;;;;;;-1.34;49.61;100490.05;147657;1144;104535;-71
2021/03/11 00:59:27;;;;;;;34.37;16.43;;;;;;;-1.33;49.46;100486.48;147725;1144;104687;-70
2021/03/11 01:02:30;;;;;;;42.10;20.10;;;;;;;-1.34;50.73;100490.88;147641;1145;104477;-71
2021/03/11 01:05:34;;;;;;;43.27;19.27;;;;;;;-1.37;49.57;100495.41;147777;1144;104471;-71
2021/03/11 01:08:43;;;;;;;55.33;25.05;;;;;;;-1.37;49.98;100500.64;147728;1144;104880;-70
2021/03/11 01:11:46;;;;;;;66.42;27.58;;;;;;;-1.40;50.93;100496.41;147573;1144;104472;-72
2021/03/11 01:14:49;;;;;;;65.95;30.08;;;;;;;-1.41;49.95;100500.77;147623;1144;104566;-71
2021/03/11 01:17:52;;;;;;;70.57;31.83;;;;;;;-1.40;50.48;100488.55;147742;1144;104445;-71
2021/03/11 01:20:56;;;;;;;67.40;32.13;;;;;;;-1.44;49.92;100487.00;147656;1144;104555;-71
2021/03/11 01:23:59;;;;;;;63.48;30.15;;;;;;;-1.49;50.11;100486.36;147668;1144;105677;-68
2021/03/11 01:27:02;;;;;;;58.33;26.87;;;;;;;-1.55;50.56;100486.64;147680;1143;104547;-69
2021/03/11 01:30:08;;;;;;;85.47;39.15;;;;;;;-1.54;49.89;100475.23;147715;1143;104627;-70
2021/03/11 01:33:11;;;;;;;101.35;47.73;;;;;;;-1.57;50.32;100470.16;147759;1144;104531;-72
2021/03/11 01:36:15;;;;;;;76.80;34.07;;;;;;;-1.60;51.33;100463.28;147702;1143;104540;-67
2021/03/11 01:39:18;;;;;;;81.97;37.73;;;;;;;-1.59;50.26;100455.38;147673;1143;104457;-72
2021/03/11 01:42:21;;;;;;;81.82;38.23;;;;;;;-1.60;51.41;100447.59;147710;1144;104457;-70
2021/03/11 01:45:24;;;;;;;101.82;46.05;;;;;;;-1.59;50.14;100444.06;147664;1144;104466;-69
2021/03/11 01:48:27;;;;;;;69.27;31.57;;;;;;;-1.57;50.84;100447.45;147685;1144;104540;-69
2021/03/11 01:51:31;;;;;;;61.40;29.40;;;;;;;-1.62;50.78;100442.45;147586;1143;104519;-70
2021/03/11 01:54:35;;;;;;;66.72;30.80;;;;;;;-1.65;50.22;100434.73;147653;1144;104844;-69
2021/03/11 01:57:39;;;;;;;51.07;26.93;;;;;;;-1.63;51.17;100435.50;147689;1142;104655;-68
2021/03/11 02:00:42;;;;;;;58.68;30.00;;;;;;;-1.65;51.04;100428.66;147679;1144;104579;-68
2021/03/11 02:03:45;;;;;;;57.60;26.53;;;;;;;-1.64;51.01;100428.55;147724;1144;104543;-67
2021/03/11 02:06:49;;;;;;;51.48;23.12;;;;;;;-1.68;51.66;100416.55;147702;1144;104588;-67
2021/03/11 02:09:52;;;;;;;42.03;22.80;;;;;;;-1.67;50.91;100415.64;147675;1144;104494;-66
2021/03/11 02:13:26;;;;;;;44.03;23.45;;;;;;;-1.69;51.32;100414.86;147730;1144;104470;-70
2021/03/11 02:16:33;;;;;;;47.65;24.50;;;;;;;-1.70;51.53;100410.53;147733;1144;104889;-67
2021/03/11 02:20:08;;;;;;;55.83;25.92;;;;;;;-1.70;51.91;100400.07;147738;1144;104592;-69
2021/03/11 02:23:58;;;;;;;41.13;20.95;;;;;;;-1.67;51.57;100399.10;147705;1144;104602;-69
2021/03/11 02:27:37;;;;;;;44.47;21.77;;;;;;;-1.69;51.50;100390.48;147608;1143;104466;-67
2021/03/11 02:30:41;;;;;;;42.47;20.77;;;;;;;-1.69;50.95;100391.31;147608;1144;104473;-72
2021/03/11 02:33:47;;;;;;;47.23;24.27;;;;;;;-1.70;51.87;100379.14;147666;1143;104643;-68
2021/03/11 02:36:55;;;;;;;58.70;25.27;;;;;;;-1.77;50.78;100372.53;147740;1143;104963;-69
2021/03/11 02:40:03;;;;;;;45.63;20.72;;;;;;;-1.77;51.01;100380.38;147674;1144;104546;-71
2021/03/11 02:43:13;;;;;;;46.92;21.65;;;;;;;-1.78;51.16;100368.20;147682;1144;104467;-68
2021/03/11 02:46:18;;;;;;;59.15;27.10;;;;;;;-1.79;52.21;100369.10;147709;1142;104464;-70
2021/03/11 02:49:23;;;;;;;53.35;25.23;;;;;;;-1.81;51.72;100363.09;147673;1144;104581;-70
2021/03/11 02:52:27;;;;;;;43.55;19.87;;;;;;;-1.83;51.58;100363.19;147719;1143;104454;-73
2021/03/11 02:55:33;;;;;;;42.80;19.90;;;;;;;-1.83;51.98;100364.94;147704;1144;104446;-69
2021/03/11 02:58:39;;;;;;;47.20;21.57;;;;;;;-1.87;51.93;100355.55;147700;1143;104487;-72
2021/03/11 03:01:43;;;;;;;56.02;24.10;;;;;;;-1.84;51.26;100363.26;147746;1144;104540;-74
2021/03/11 03:04:49;;;;;;;44.67;21.42;;;;;;;-1.82;52.08;100370.10;147685;1144;104553;-69
2021/03/11 03:07:54;;;;;;;43.75;21.23;;;;;;;-1.76;51.99;100374.20;147736;1142;104532;-70
2021/03/11 03:10:59;;;;;;;47.80;22.93;;;;;;;-1.78;51.84;100365.58;147700;1144;104558;-70
2021/03/11 03:14:03;;;;;;;50.43;23.87;;;;;;;-1.81;51.11;100369.20;147689;1144;104543;-71
2021/03/11 03:17:08;;;;;;;42.03;19.87;;;;;;;-1.82;52.06;100366.65;147645;1144;104449;-71
2021/03/11 03:20:15;;;;;;;46.02;20.72;;;;;;;-1.82;51.83;100366.65;147637;1144;104623;-68
2021/03/11 03:23:20;;;;;;;52.77;25.93;;;;;;;-1.81;52.11;100371.81;147619;1144;104402;-71
2021/03/11 03:26:23;;;;;;;40.00;18.25;;;;;;;-1.79;51.77;100363.88;147681;1144;104543;-65
2021/03/11 03:29:27;;;;;;;46.90;20.97;;;;;;;-1.80;52.05;100372.66;147523;1144;104448;-67
2021/03/11 03:32:30;;;;;;;45.75;21.62;;;;;;;-1.86;51.56;100363.33;147652;1144;104905;-68
2021/03/11 03:35:34;;;;;;;49.35;22.05;;;;;;;-1.93;52.28;100364.52;147685;1143;104544;-67
2021/03/11 03:38:38;;;;;;;40.95;20.45;;;;;;;-1.96;51.67;100362.06;147743;1143;104544;-67
2021/03/11 03:41:46;;;;;;;39.42;19.57;;;;;;;-2.00;52.06;100356.13;147737;1142;104491;-72
2021/03/11 03:44:52;;;;;;;43.93;23.57;;;;;;;-2.02;51.20;100350.12;147676;1145;104864;-71
2021/03/11 03:47:57;;;;;;;42.57;20.03;;;;;;;-2.01;51.64;100351.80;147709;1142;104944;-68
2021/03/11 03:51:00;;;;;;;39.42;20.68;;;;;;;-1.99;51.79;100342.11;147713;1144;104610;-66
2021/03/11 03:54:07;;;;;;;41.13;20.62;;;;;;;-2.01;51.60;100336.11;147718;1144;104534;-71
2021/03/11 03:57:14;;;;;;;46.30;23.38;;;;;;;-2.03;52.52;100337.95;147735;1144;104696;-75
2021/03/11 04:00:20;;;;;;;47.55;19.07;;;;;;;-2.05;52.04;100336.34;147750;1144;104532;-73
2021/03/11 04:03:26;;;;;;;55.70;24.07;;;;;;;-2.06;52.20;100337.23;147733;1144;104521;-71
2021/03/11 04:06:30;;;;;;;44.60;21.05;;;;;;;-2.07;52.13;100335.56;147576;1143;104583;-75
2021/03/11 04:09:33;;;;;;;47.10;19.35;;;;;;;-2.08;51.21;100326.88;147792;1143;104540;-74
2021/03/11 04:12:37;;;;;;;96.63;38.83;;;;;;;-2.11;52.44;100319.16;147907;1144;104464;-74
2021/03/11 04:15:41;;;;;;;119.97;50.55;;;;;;;-2.14;52.53;100323.68;147928;1143;104406;-69
2021/03/11 04:18:45;;;;;;;73.80;32.40;;;;;;;-2.17;52.72;100325.52;148090;1144;104445;-68
2021/03/11 04:21:48;;;;;;;52.15;22.93;;;;;;;-2.21;51.88;100325.73;147833;1144;104554;-70
2021/03/11 04:24:52;;;;;;;47.17;20.08;;;;;;;-2.27;51.25;100320.77;147793;1142;104585;-70
2021/03/11 04:27:55;;;;;;;46.02;20.77;;;;;;;-2.30;51.86;100306.09;147675;1144;104493;-72
2021/03/11 04:30:59;;;;;;;44.55;20.62;;;;;;;-2.35;51.36;100315.05;147875;1145;104454;-72
2021/03/11 04:34:02;;;;;;;47.10;22.43;;;;;;;-2.38;51.45;100314.27;147779;1144;104563;-71
2021/03/11 04:37:07;;;;;;;44.60;20.32;;;;;;;-2.41;52.50;100309.17;147700;1144;104684;-70
2021/03/11 04:40:12;;;;;;;56.95;26.62;;;;;;;-2.45;51.40;100302.39;147746;1145;104500;-73
2021/03/11 04:43:15;;;;;;;91.67;38.53;;;;;;;-2.49;52.27;100300.00;147836;1144;104447;-74
2021/03/11 04:46:21;;;;;;;83.85;37.20;;;;;;;-2.50;51.68;100299.16;147640;1144;104532;-70
2021/03/11 04:49:30;;;;;;;77.17;38.23;;;;;;;-2.49;52.15;100297.39;147687;1143;104543;-73
2021/03/11 04:52:34;;;;;;;54.13;26.15;;;;;;;-2.52;51.55;100305.34;147853;1144;104499;-77
2021/03/11 04:55:38;;;;;;;49.03;21.70;;;;;;;-2.53;52.43;100290.61;147906;1144;104615;-73
2021/03/11 04:58:42;;;;;;;39.03;18.77;;;;;;;-2.48;51.76;100293.84;147866;1144;104504;-73
2021/03/11 05:01:50;;;;;;;47.40;21.82;;;;;;;-2.46;52.51;100284.20;147839;1142;104512;-74
2021/03/11 05:04:53;;;;;;;54.23;22.27;;;;;;;-2.44;52.56;100272.75;147804;1144;104450;-73
2021/03/11 05:07:57;;;;;;;111.13;47.93;;;;;;;-2.38;52.33;100272.47;147798;1144;104546;-72
2021/03/11 05:11:00;;;;;;;55.17;24.92;;;;;;;-2.36;52.41;100272.40;147802;1144;104540;-77
2021/03/11 05:14:03;;;;;;;53.70;23.80;;;;;;;-2.35;51.77;100261.01;147814;1143;104474;-74
2021/03/11 05:17:06;;;;;;;74.43;33.70;;;;;;;-2.31;51.82;100251.27;147849;1144;104474;-73
2021/03/11 05:20:12;;;;;;;87.75;40.12;;;;;;;-2.25;51.84;100250.98;147857;1144;104969;-73
2021/03/11 05:23:15;;;;;;;81.63;38.78;;;;;;;-2.18;51.85;100248.00;147864;1144;104520;-72
2021/03/11 05:26:18;;;;;;;100.00;50.60;;;;;;;-2.10;52.82;100244.19;147574;1145;104551;-73
2021/03/11 05:29:21;;;;;;;63.38;29.07;;;;;;;-2.06;51.84;100236.14;147773;1144;104655;-72
2021/03/11 05:32:24;;;;;;;58.00;27.50;;;;;;;-2.01;53.07;100231.52;147834;1143;104449;-71
2021/03/11 05:35:28;;;;;;;75.53;37.23;;;;;;;-1.90;52.52;100230.17;147712;1144;104563;-73
2021/03/11 05:38:31;;;;;;;62.40;30.80;;;;;;;-1.83;51.54;100221.09;147844;1143;104660;-73
2021/03/11 05:41:39;;;;;;;91.25;37.63;;;;;;;-1.74;52.90;100219.80;147844;1143;104550;-74
2021/03/11 05:44:43;;;;;;;458.53;171.65;;;;;;;-1.62;52.89;100225.28;147888;1144;104849;-74
2021/03/11 05:47:47;;;;;;;783.23;356.35;;;;;;;-1.51;52.84;100210.81;147792;1144;104540;-73
2021/03/11 05:50:52;;;;;;;269.83;96.60;;;;;;;-1.41;52.67;100212.03;147783;1142;104515;-74
2021/03/11 05:53:57;;;;;;;336.43;137.37;;;;;;;-1.29;53.04;100200.95;147781;1144;104583;-74
2021/03/11 05:57:02;;;;;;;144.53;65.17;;;;;;;-1.21;52.81;100196.16;147894;1143;104511;-74
2021/03/11 06:00:08;;;;;;;137.60;57.17;;;;;;;-1.14;51.81;100186.20;147783;1143;104459;-73
2021/03/11 06:03:12;;;;;;;494.00;190.57;;;;;;;-1.00;51.97;100181.09;147690;1144;104543;-69
2021/03/11 06:06:15;;;;;;;773.15;300.27;;;;;;;-0.89;52.53;100167.41;147808;1144;104545;-71
2021/03/11 06:09:20;;;;;;;948.77;490.77;;;;;;;-0.78;52.44;100168.63;147809;1144;104553;-72
2021/03/11 06:12:24;;;;;;;607.70;312.07;;;;;;;-0.70;51.59;100166.43;147822;1144;104497;-70
2021/03/11 06:15:32;;;;;;;405.93;205.27;;;;;;;-0.62;51.69;100154.61;147821;1142;104468;-71
2021/03/11 06:18:38;;;;;;;253.65;122.55;;;;;;;-0.60;51.97;100152.75;147828;1142;104519;-74
2021/03/11 06:21:43;;;;;;;207.53;117.37;;;;;;;-0.54;51.26;100143.70;147904;1143;104540;-72
2021/03/11 06:24:46;;;;;;;111.95;68.78;;;;;;;-0.46;52.00;100141.50;147864;1143;104530;-73
2021/03/11 06:27:49;;;;;;;64.73;34.83;;;;;;;-0.38;51.57;100132.37;147996;1142;104625;-72
2021/03/11 06:30:52;;;;;;;49.83;28.27;;;;;;;-0.30;50.87;100132.77;147834;1143;104444;-73
2021/03/11 06:33:57;;;;;;;39.78;19.77;;;;;;;-0.20;51.82;100131.31;147916;1144;104403;-71
2021/03/11 06:37:01;;;;;;;46.63;26.67;;;;;;;-0.12;51.61;100131.70;147794;1144;104466;-73
2021/03/11 06:40:15;;;;;;;57.20;33.70;;;;;;;-0.04;51.30;100126.89;147729;1143;104570;-72
2021/03/11 06:43:18;;;;;;;42.43;22.27;;;;;;;0.09;51.34;100111.26;147672;1143;104559;-73
2021/03/11 06:46:23;;;;;;;37.53;16.80;;;;;;;0.21;50.87;100114.10;147808;1144;104543;-71
2021/03/11 06:49:27;;;;;;;36.85;19.67;;;;;;;0.31;50.87;100110.86;147688;1144;104481;-71
2021/03/11 06:52:30;;;;;;;36.17;18.30;;;;;;;0.41;50.74;100119.02;147692;1144;104467;-72
2021/03/11 06:55:33;;;;;;;34.15;17.87;;;;;;;0.52;50.65;100111.35;147832;1143;105439;-71
2021/03/11 06:58:37;;;;;;;34.78;18.73;;;;;;;0.62;50.96;100111.64;147761;1143;104543;-68
2021/03/11 07:01:52;;;;;;;38.65;19.65;;;;;;;0.78;50.54;100114.16;147615;1143;104551;-72
2021/03/11 07:05:10;;;;;;;40.13;20.57;;;;;;;0.90;49.58;100110.77;147669;1144;104545;-73
2021/03/11 07:08:16;;;;;;;40.70;22.37;;;;;;;0.99;49.83;100109.38;147780;1144;104538;-71
2021/03/11 07:11:20;;;;;;;35.75;17.52;;;;;;;1.06;49.07;100117.70;147807;1144;104628;-71
2021/03/11 07:14:28;;;;;;;37.55;21.90;;;;;;;1.11;49.85;100119.10;147741;1144;104563;-73
2021/03/11 07:17:32;;;;;;;38.67;22.10;;;;;;;1.25;49.46;100113.00;147734;1144;104572;-71
2021/03/11 07:20:36;;;;;;;34.78;20.77;;;;;;;1.27;49.48;100097.98;147584;1144;104556;-73
2021/03/11 07:23:49;;;;;;;37.98;22.02;;;;;;;1.38;49.20;100092.85;147824;1144;104457;-68
2021/03/11 07:26:59;;;;;;;39.20;21.20;;;;;;;1.42;47.96;100088.24;147701;1143;104587;-70
2021/03/11 07:30:03;;;;;;;41.25;23.00;;;;;;;1.54;49.00;100082.21;147741;1143;104566;-71
2021/03/11 07:33:08;;;;;;;35.30;19.52;;;;;;;1.62;48.91;100071.19;147720;1144;104543;-69
2021/03/11 07:36:11;;;;;;;34.67;18.67;;;;;;;1.73;49.45;100075.73;147633;1143;104588;-69
2021/03/11 07:39:15;;;;;;;31.57;17.05;;;;;;;1.82;49.34;100071.66;147835;1144;104489;-73
2021/03/11 07:42:19;;;;;;;37.55;22.40;;;;;;;1.88;48.59;100069.45;148061;1144;104519;-76
2021/03/11 07:45:23;;;;;;;32.42;16.77;;;;;;;1.93;48.83;100056.01;147944;1144;104518;-80
2021/03/11 07:48:26;;;;;;;30.97;18.30;;;;;;;2.00;47.39;100053.80;147826;1144;104474;-79
2021/03/11 07:51:33;;;;;;;31.70;16.95;;;;;;;2.04;47.64;100055.27;147849;1144;104538;-78
2021/03/11 07:54:36;;;;;;;29.77;16.80;;;;;;;2.07;47.37;100055.08;147843;1143;104541;-72
2021/03/11 07:57:42;;;;;;;27.70;16.57;;;;;;;2.14;47.17;100035.30;147600;1144;104548;-74
2021/03/11 08:00:46;;;;;;;138.77;60.58;;;;;;;2.16;47.18;100033.41;147664;1142;104480;-81
2021/03/11 08:03:51;;;;;;;194.32;91.95;;;;;;;2.24;47.55;100040.77;149828;1142;104445;-71
2021/03/11 08:07:17;;;;;;;88.97;48.48;;;;;;;2.23;45.78;100037.27;147781;1143;104540;-71
2021/03/11 08:10:21;;;;;;;64.40;35.03;;;;;;;2.28;46.64;100042.25;147736;1143;104555;-71
2021/03/11 08:13:35;;;;;;;157.73;91.67;;;;;;;2.34;46.75;100032.12;147744;1144;104660;-72
2021/03/11 08:16:38;;;;;;;52.45;31.05;;;;;;;2.39;45.36;100010.75;147561;1144;104467;-75
2021/03/11 08:19:50;;;;;;;47.30;27.73;;;;;;;2.47;46.78;100018.12;148078;1143;104541;-70
2021/03/11 08:23:12;;;;;;;49.45;31.48;;;;;;;2.60;47.23;100005.78;147681;1144;104546;-72
2021/03/11 08:26:41;;;;;;;43.30;26.70;;;;;;;2.71;46.89;99992.69;148142;1142;104475;-70
2021/03/11 08:29:45;;;;;;;48.60;33.00;;;;;;;2.72;46.05;99983.82;147497;1144;104524;-70
2021/03/11 08:32:49;;;;;;;45.40;31.95;;;;;;;2.78;46.42;99968.53;147580;1144;104546;-75
2021/03/11 08:35:55;;;;;;;48.90;35.10;;;;;;;2.92;44.37;99966.56;147758;1143;104509;-73
2021/03/11 08:38:58;;;;;;;57.83;39.95;;;;;;;2.98;46.19;99960.01;148430;1142;104450;-73
2021/03/11 08:42:49;;;;;;;39.23;23.10;;;;;;;3.02;46.34;99958.86;148099;1143;104540;-72
2021/03/11 08:45:53;;;;;;;41.65;28.07;;;;;;;3.13;45.44;99961.52;148246;1144;104633;-73
2021/03/11 08:49:00;;;;;;;43.75;26.68;;;;;;;3.23;45.63;99960.85;147939;1144;104636;-75
2021/03/11 08:52:04;;;;;;;38.90;24.90;;;;;;;3.34;46.32;99934.53;147966;1143;104485;-73
2021/03/11 08:55:36;;;;;;;27.83;17.43;;;;;;;3.38;43.78;99928.06;148257;1143;104466;-70
2021/03/11 08:58:51;;;;;;;28.85;18.70;;;;;;;3.45;43.99;99937.20;147571;1144;104467;-71
2021/03/11 09:01:55;;;;;;;26.12;17.70;;;;;;;3.47;44.06;99922.11;148046;1143;104533;-73
2021/03/11 09:04:59;;;;;;;26.33;17.32;;;;;;;3.56;45.80;99925.00;148195;1143;104594;-73
2021/03/11 09:08:12;;;;;;;28.45;17.85;;;;;;;3.62;44.42;99919.25;147925;1144;104592;-75
2021/03/11 09:11:20;;;;;;;32.75;20.65;;;;;;;3.70;43.87;99906.33;148013;1143;104501;-76
2021/03/11 09:14:25;;;;;;;28.50;17.92;;;;;;;3.72;43.74;99883.30;147772;1144;104489;-73
2021/03/11 09:17:30;;;;;;;31.12;19.20;;;;;;;3.72;41.25;99884.14;148049;1144;104549;-73
2021/03/11 09:20:34;;;;;;;28.77;17.82;;;;;;;3.66;43.09;99874.06;147709;1144;104574;-78
2021/03/11 09:23:39;;;;;;;32.40;20.85;;;;;;;3.73;43.54;99877.05;148165;1144;104547;-74
2021/03/11 09:26:42;;;;;;;30.00;18.30;;;;;;;3.81;43.34;99872.05;147925;1143;104538;-74
2021/03/11 09:29:49;;;;;;;33.45;18.75;;;;;;;3.84;43.71;99873.59;147872;1143;104825;-75
2021/03/11 09:32:53;;;;;;;33.18;18.52;;;;;;;3.70;43.96;99837.73;148061;1143;104592;-75
2021/03/11 09:35:56;;;;;;;31.25;19.98;;;;;;;3.92;42.17;99850.08;147787;1144;104825;-76
2021/03/11 09:39:04;;;;;;;32.77;17.93;;;;;;;3.90;43.54;99834.35;147982;1144;104458;-75
2021/03/11 09:42:10;;;;;;;31.23;18.27;;;;;;;3.86;42.62;99837.36;147955;1144;104463;-76
2021/03/11 09:45:28;;;;;;;28.02;17.92;;;;;;;3.82;41.77;99822.73;148035;1144;104549;-77
2021/03/11 09:48:33;;;;;;;30.65;17.92;;;;;;;3.84;43.32;99819.00;148162;1144;106101;-76
2021/03/11 09:51:37;;;;;;;30.95;18.75;;;;;;;3.86;42.80;99806.52;148129;1144;104484;-78
2021/03/11 09:54:40;;;;;;;192.87;82.70;;;;;;;3.84;42.39;99797.06;148014;1144;104457;-73
2021/03/11 09:57:43;;;;;;;195.90;78.33;;;;;;;3.82;43.16;99783.98;148036;1143;104555;-72
2021/03/11 10:00:48;;;;;;;219.63;85.50;;;;;;;3.89;43.15;99768.52;148160;1142;104487;-71
2021/03/11 10:03:51;;;;;;;557.57;259.67;;;;;;;3.90;43.62;99776.28;147831;1144;104578;-72
2021/03/11 10:06:56;;;;;;;852.03;438.17;;;;;;;3.85;42.98;99767.91;148043;1143;104630;-72
2021/03/11 10:09:59;;;;;;;586.47;286.00;;;;;;;3.86;42.23;99753.73;147471;1144;104467;-73
2021/03/11 10:13:02;;;;;;;446.77;232.35;;;;;;;3.84;42.78;99745.11;147495;1143;104935;-70
2021/03/11 10:16:07;;;;;;;615.40;322.35;;;;;;;3.84;42.91;99742.47;147531;1143;104466;-71
2021/03/11 10:19:15;;;;;;;675.60;354.43;;;;;;;3.86;42.66;99724.70;147746;1143;104629;-72
2021/03/11 10:22:22;;;;;;;563.42;275.57;;;;;;;3.95;43.47;99727.59;147851;1143;104543;-71
2021/03/11 10:25:25;;;;;;;505.50;252.60;;;;;;;4.02;42.92;99723.47;147693;1144;104466;-69
2021/03/11 10:28:29;;;;;;;544.07;297.30;;;;;;;4.05;42.77;99736.44;147777;1143;104583;-74
2021/03/11 10:31:32;;;;;;;264.35;112.65;;;;;;;4.02;42.36;99720.83;147489;1144;104492;-68
2021/03/11 10:34:47;;;;;;;376.03;193.27;;;;;;;4.01;42.17;99720.00;147812;1143;104608;-72
2021/03/11 10:37:50;;;;;;;79.15;39.33;;;;;;;4.01;42.43;99714.72;147776;1144;104473;-73
2021/03/11 10:41:08;;;;;;;461.08;261.23;;;;;;;4.11;41.27;99693.69;148094;1143;105215;-69
2021/03/11 10:44:16;;;;;;;124.87;59.18;;;;;;;4.17;42.96;99687.89;147592;1145;104500;-72
2021/03/11 10:47:21;;;;;;;354.27;186.75;;;;;;;4.28;43.00;99684.38;147888;1143;104470;-72
2021/03/11 10:50:25;;;;;;;398.77;226.40;;;;;;;4.32;42.23;99669.95;147597;1144;104564;-72
2021/03/11 10:53:38;;;;;;;389.73;222.50;;;;;;;4.39;43.00;99662.34;147551;1144;104595;-72
2021/03/11 10:57:09;;;;;;;173.17;89.58;;;;;;;4.40;42.81;99650.83;147513;1144;104467;-73
2021/03/11 11:00:24;;;;;;;110.63;57.33;;;;;;;4.32;42.11;99636.45;148255;1142;104581;-80
2021/03/11 11:03:27;;;;;;;300.27;160.00;;;;;;;4.26;41.53;99628.22;147999;1142;104580;-75
2021/03/11 11:06:31;;;;;;;144.83;77.00;;;;;;;4.25;41.30;99632.67;147974;1143;104623;-72
2021/03/11 11:09:35;;;;;;;98.52;55.70;;;;;;;4.19;42.00;99630.52;147662;1144;104533;-72
2021/03/11 11:12:38;;;;;;;138.40;83.50;;;;;;;4.20;41.83;99629.56;147866;1144;104470;-82
2021/03/11 11:15:41;;;;;;;151.78;86.42;;;;;;;4.22;42.90;99621.52;148071;1144;104556;-72
2021/03/11 11:18:44;;;;;;;167.53;91.80;;;;;;;4.28;41.60;99603.34;147998;1142;104556;-72
2021/03/11 11:21:48;;;;;;;119.77;66.35;;;;;;;4.29;41.89;99597.11;147976;1143;104484;-73
2021/03/11 11:24:51;;;;;;;103.70;57.33;;;;;;;4.29;42.72;99586.55;148029;1144;104538;-77
2021/03/11 11:27:54;;;;;;;68.50;38.13;;;;;;;4.38;42.19;99576.99;148148;1144;104531;-73
2021/03/11 11:30:57;;;;;;;58.00;33.35;;;;;;;4.43;42.42;99566.05;147990;1144;104567;-71
2021/03/11 11:34:00;;;;;;;80.53;50.20;;;;;;;4.45;41.72;99554.38;147889;1143;104487;-76
2021/03/11 11:37:04;;;;;;;118.37;69.97;;;;;;;4.42;41.52;99540.59;148153;1143;105033;-74
2021/03/11 11:40:09;;;;;;;78.03;48.33;;;;;;;4.33;41.11;99526.38;148056;1144;104520;-78
2021/03/11 11:43:12;;;;;;;99.58;62.20;;;;;;;4.35;40.90;99520.95;148023;1144;104467;-74
2021/03/11 11:46:15;;;;;;;93.23;63.03;;;;;;;4.39;42.43;99517.07;148047;1143;104455;-70
2021/03/11 11:49:19;;;;;;;58.43;38.40;;;;;;;4.41;41.34;99504.59;148056;1143;104809;-73
2021/03/11 11:52:22;;;;;;;44.70;29.60;;;;;;;4.41;42.50;99492.22;148152;1143;104500;-71
2021/03/11 11:55:25;;;;;;;39.85;27.17;;;;;;;4.39;40.76;99485.38;147748;1144;104541;-75
2021/03/11 11:58:28;;;;;;;42.35;28.12;;;;;;;4.33;41.38;99479.67;147895;1144;104464;-74
2021/03/11 12:01:31;;;;;;;54.73;41.20;;;;;;;4.31;42.37;99473.69;148124;1144;104544;-71
2021/03/11 12:04:35;;;;;;;29.80;19.92;;;;;;;4.31;42.38;99471.05;147929;1143;104467;-72
2021/03/11 12:07:38;;;;;;;32.13;20.13;;;;;;;4.29;42.51;99446.58;147728;1144;104599;-74
2021/03/11 12:10:41;;;;;;;29.48;18.32;;;;;;;4.32;41.41;99437.55;147774;1143;104374;-72
2021/03/11 12:13:45;;;;;;;28.23;18.02;;;;;;;4.35;42.20;99441.71;147798;1144;104551;-75
2021/03/11 12:16:48;;;;;;;33.83;20.05;;;;;;;4.37;42.42;99429.20;147633;1144;104485;-72
2021/03/11 12:19:51;;;;;;;30.02;18.25;;;;;;;4.37;41.59;99429.20;147674;1144;104540;-74
2021/03/11 12:22:54;;;;;;;30.75;18.32;;;;;;;4.36;41.97;99416.98;147893;1143;104576;-72
2021/03/11 12:25:59;;;;;;;29.10;16.93;;;;;;;4.38;42.48;99407.13;147784;1143;104441;-72
2021/03/11 12:29:02;;;;;;;29.48;19.12;;;;;;;4.38;41.50;99396.56;147709;1144;104857;-73
2021/03/11 12:32:06;;;;;;;28.67;17.43;;;;;;;4.38;42.04;99409.77;147836;1144;104490;-75
2021/03/11 12:35:11;;;;;;;28.23;17.07;;;;;;;4.36;42.41;99406.42;147856;1142;104463;-71
2021/03/11 12:38:14;;;;;;;33.80;22.67;;;;;;;4.37;42.37;99403.66;147760;1144;104605;-72
2021/03/11 12:41:19;;;;;;;27.67;16.97;;;;;;;4.39;41.96;99398.21;147826;1144;104617;-72
2021/03/11 12:44:23;;;;;;;29.90;18.25;;;;;;;4.38;41.45;99383.35;147714;1144;104546;-71
2021/03/11 12:47:26;;;;;;;41.25;24.65;;;;;;;4.40;42.25;99381.41;147590;1143;104546;-73
2021/03/11 12:50:29;;;;;;;32.65;19.95;;;;;;;4.41;41.94;99367.25;147866;1143;104577;-76
2021/03/11 12:53:33;;;;;;;29.12;17.80;;;;;;;4.28;43.11;99386.80;147826;1143;104547;-74
2021/03/11 12:56:36;;;;;;;28.62;17.00;;;;;;;4.16;43.91;99377.31;147866;1144;104451;-74
2021/03/11 12:59:39;;;;;;;33.90;19.37;;;;;;;4.05;44.47;99372.95;147857;1145;104492;-76
2021/03/11 13:02:42;;;;;;;67.12;35.88;;;;;;;3.94;44.69;99378.32;147901;1144;104531;-75
2021/03/11 13:05:46;;;;;;;166.22;77.17;;;;;;;3.89;44.79;99370.81;147835;1144;104535;-74
2021/03/11 13:08:49;;;;;;;124.23;56.03;;;;;;;3.92;46.00;99373.17;147882;1143;104447;-75
2021/03/11 13:11:52;;;;;;;204.00;79.30;;;;;;;3.90;45.32;99372.47;147912;1144;104546;-72
2021/03/11 13:14:56;;;;;;;231.63;90.57;;;;;;;3.84;46.89;99357.17;147851;1144;104547;-72
2021/03/11 13:17:59;;;;;;;109.35;46.13;;;;;;;3.72;47.46;99359.06;147833;1145;104485;-72
2021/03/11 13:21:02;;;;;;;156.70;58.87;;;;;;;3.62;49.47;99363.46;147909;1145;104444;-72
2021/03/11 13:24:07;;;;;;;182.17;77.00;;;;;;;3.50;49.07;99354.80;147825;1144;104633;-71
2021/03/11 13:27:10;;;;;;;115.80;46.83;;;;;;;3.40;48.71;99356.52;147828;1144;104853;-77
2021/03/11 13:30:16;;;;;;;102.62;42.90;;;;;;;3.28;50.14;99353.11;147788;1142;104940;-71
2021/03/11 13:33:19;;;;;;;198.63;77.53;;;;;;;3.19;50.11;99332.78;147728;1144;104597;-71
2021/03/11 13:36:22;;;;;;;198.43;72.17;;;;;;;3.10;50.37;99317.77;147732;1144;104487;-77
2021/03/11 13:39:25;;;;;;;127.75;52.90;;;;;;;3.03;49.97;99316.59;147843;1142;104627;-72
2021/03/11 13:42:28;;;;;;;81.47;36.53;;;;;;;3.01;49.62;99292.17;147810;1144;105030;-76
2021/03/11 13:45:32;;;;;;;250.35;108.27;;;;;;;2.97;49.26;99283.69;147518;1143;104544;-71
2021/03/11 13:48:35;;;;;;;90.07;41.03;;;;;;;2.94;49.82;99276.02;147776;1143;104448;-71
2021/03/11 13:51:38;;;;;;;130.35;55.30;;;;;;;2.93;50.06;99264.66;147823;1144;104947;-75